Time;durP1;ratioP1;P1;durP2;ratioP2;P2;SDS_P1;SDS_P2;PMS_P1;PMS_P2;Temp;Humidity;BMP_temperature;BMP_pressure;BME280_temperature;BME280_humidity;BME280_pressure;Samples;Min_cycle;Max_cycle;Signal;HPM_P1;HPM_P2
2023/07/28 00:02:16;;;;;;;6.27;3.87;;;17.80;99.90;;;;;;5058571;28;20181;-84
2023/07/28 00:04:42;;;;;;;7.33;4.17;;;17.80;99.90;;;;;;5033385;28;20199;-85
2023/07/28 00:07:07;;;;;;;6.03;4.70;;;17.70;99.90;;;;;;5041847;28;20722;-84
2023/07/28 00:09:33;;;;;;;11.37;4.90;;;17.60;99.90;;;;;;5054045;28;20216;-85
2023/07/28 00:12:00;;;;;;;6.30;4.37;;;17.60;99.90;;;;;;5034200;28;20747;-85
2023/07/28 00:14:26;;;;;;;12.27;4.40;;;18.30;99.90;;;;;;5056460;28;20191;-84
2023/07/28 00:16:53;;;;;;;9.03;4.20;;;17.60;99.90;;;;;;5040182;28;20482;-88
2023/07/28 00:19:20;;;;;;;8.33;4.00;;;17.50;99.90;;;;;;5038642;28;20451;-87
2023/07/28 00:21:50;;;;;;;4.27;3.60;;;17.50;99.90;;;;;;5040363;28;21256;-84
2023/07/28 00:24:18;;;;;;;7.10;4.00;;;17.50;99.90;;;;;;5034010;28;20443;-87
2023/07/28 00:26:44;;;;;;;6.10;4.27;;;17.50;99.90;;;;;;5048150;28;20547;-84
2023/07/28 00:29:10;;;;;;;7.73;3.97;;;17.40;99.90;;;;;;5052245;28;20454;-85
2023/07/28 00:31:35;;;;;;;4.60;3.67;;;17.40;99.90;;;;;;5039134;28;20434;-85
2023/07/28 00:34:02;;;;;;;4.00;3.60;;;17.40;99.90;;;;;;5034033;28;20215;-86
2023/07/28 00:36:28;;;;;;;4.67;3.70;;;17.50;99.90;;;;;;5040453;28;20291;-85
2023/07/28 00:38:54;;;;;;;5.57;4.03;;;17.50;99.90;;;;;;5039535;28;20511;-88
2023/07/28 00:41:19;;;;;;;5.97;3.43;;;17.50;99.90;;;;;;5038172;28;20193;-87
2023/07/28 00:43:45;;;;;;;4.70;3.33;;;17.60;99.90;;;;;;5051317;28;20172;-84
2023/07/28 00:46:10;;;;;;;8.10;4.17;;;17.60;99.90;;;;;;5053495;28;20185;-87
2023/07/28 00:48:37;;;;;;;6.40;3.33;;;17.50;99.90;;;;;;5035796;28;20173;-87
2023/07/28 00:51:03;;;;;;;9.10;3.60;;;17.60;99.90;;;;;;5034017;28;20191;-88
2023/07/28 00:53:29;;;;;;;5.53;3.47;;;17.60;99.90;;;;;;5039745;28;20519;-86
2023/07/28 00:55:55;;;;;;;6.07;3.60;;;17.60;99.90;;;;;;5025702;28;20481;-88
2023/07/28 00:58:21;;;;;;;5.50;3.10;;;17.60;99.90;;;;;;5057956;28;20507;-88
2023/07/28 01:00:48;;;;;;;4.60;3.67;;;17.50;99.90;;;;;;5037702;28;20475;-86
2023/07/28 01:03:15;;;;;;;7.80;3.57;;;17.60;99.90;;;;;;5035910;28;20511;-87
2023/07/28 01:06:03;;;;;;;4.27;3.23;;;17.70;99.90;;;;;;5042197;28;20449;-87
2023/07/28 01:08:50;;;;;;;14.33;4.73;;;17.70;99.90;;;;;;5044914;28;20441;-88
2023/07/28 01:11:16;;;;;;;7.67;3.90;;;17.70;99.90;;;;;;5065556;28;20428;-85
2023/07/28 01:13:41;;;;;;;4.47;2.93;;;18.10;99.90;;;;;;5032600;28;20431;-86
2023/07/28 01:16:08;;;;;;;11.10;3.63;;;17.80;99.90;;;;;;5037797;28;20216;-88
2023/07/28 01:18:33;;;;;;;4.17;3.77;;;17.70;99.90;;;;;;5059404;28;20185;-88
2023/07/28 01:21:03;;;;;;;5.10;3.83;;;17.70;99.90;;;;;;5041073;28;20530;-89
2023/07/28 01:23:43;;;;;;;5.90;4.40;;;17.60;99.90;;;;;;5041644;28;20711;-89
2023/07/28 01:26:11;;;;;;;7.60;4.73;;;17.60;99.90;;;;;;5039226;28;20439;-87
2023/07/28 01:28:39;;;;;;;6.50;4.23;;;17.60;99.90;;;;;;5042938;28;21032;-87
2023/07/28 01:31:07;;;;;;;10.63;5.80;;;17.60;99.90;;;;;;5036856;28;20447;-89
2023/07/28 01:33:33;;;;;;;5.87;4.60;;;17.50;99.90;;;;;;5051678;28;20463;-88
2023/07/28 01:36:00;;;;;;;10.43;6.37;;;17.60;99.90;;;;;;5047629;28;20466;-87
2023/07/28 01:38:27;;;;;;;7.73;5.60;;;17.60;99.90;;;;;;5046644;28;20438;-87
2023/07/28 01:40:52;;;;;;;7.73;5.23;;;17.50;99.90;;;;;;5047521;28;20451;-87
2023/07/28 01:43:18;;;;;;;8.13;4.40;;;17.50;99.90;;;;;;5037019;28;22404;-88
2023/07/28 01:45:44;;;;;;;4.77;3.60;;;17.50;99.90;;;;;;5041248;28;20192;-89
2023/07/28 01:48:09;;;;;;;5.90;3.53;;;17.50;99.90;;;;;;5034504;28;20220;-87
2023/07/28 01:50:35;;;;;;;10.50;5.13;;;;;;;;;;5038378;28;20220;-89
2023/07/28 01:53:02;;;;;;;10.73;5.50;;;17.20;99.90;;;;;;5040889;28;20852;-87
2023/07/28 01:55:27;;;;;;;6.13;4.80;;;17.20;99.90;;;;;;5040667;28;20479;-85
2023/07/28 01:57:58;;;;;;;6.83;5.07;;;17.20;99.90;;;;;;5038745;28;20545;-87
2023/07/28 02:00:24;;;;;;;8.40;5.30;;;17.20;99.90;;;;;;5040827;28;20201;-88
2023/07/28 02:02:50;;;;;;;8.30;6.27;;;17.20;99.90;;;;;;5039757;28;20446;-85
2023/07/28 02:05:16;;;;;;;5.87;4.30;;;17.20;99.90;;;;;;5044472;28;20950;-88
2023/07/28 02:07:43;;;;;;;6.20;4.50;;;17.20;99.90;;;;;;5047139;28;20444;-89
2023/07/28 02:10:10;;;;;;;5.73;4.13;;;17.20;99.90;;;;;;5061802;28;20200;-86
2023/07/28 02:12:39;;;;;;;9.63;4.30;;;17.00;99.90;;;;;;5049639;28;20434;-87
2023/07/28 02:15:06;;;;;;;6.53;4.10;;;17.00;99.90;;;;;;5049780;28;20533;-88
2023/07/28 02:17:32;;;;;;;4.43;3.80;;;17.00;99.90;;;;;;5045457;28;20943;-88
2023/07/28 02:19:57;;;;;;;6.13;4.00;;;17.00;99.90;;;;;;5062764;28;20434;-86
2023/07/28 02:22:23;;;;;;;5.83;4.13;;;16.90;99.90;;;;;;5058558;28;20181;-87
2023/07/28 02:24:48;;;;;;;5.20;3.70;;;16.90;99.90;;;;;;5039616;28;20185;-87
2023/07/28 02:27:14;;;;;;;6.43;4.30;;;16.80;99.90;;;;;;5044849;28;20196;-88
2023/07/28 02:29:41;;;;;;;4.83;3.53;;;;;;;;;;5052841;28;20212;-85
2023/07/28 02:32:07;;;;;;;12.70;5.17;;;16.90;99.90;;;;;;5043388;28;20184;-87
2023/07/28 02:34:33;;;;;;;5.03;3.93;;;17.00;99.90;;;;;;5047232;28;20461;-88
2023/07/28 02:36:58;;;;;;;9.60;3.80;;;17.00;99.90;;;;;;5042684;28;20473;-85
2023/07/28 02:39:24;;;;;;;8.07;4.20;;;17.00;99.90;;;;;;5039891;28;20217;-88
2023/07/28 02:41:50;;;;;;;4.80;4.20;;;;;;;;;;5030614;28;20312;-85
2023/07/28 02:44:16;;;;;;;3.77;3.33;;;17.00;99.90;;;;;;5031331;28;20517;-86
2023/07/28 02:46:42;;;;;;;5.00;3.90;;;;;;;;;;5050588;28;20443;-87
2023/07/28 02:49:07;;;;;;;4.27;3.57;;;16.90;99.90;;;;;;5033876;28;20734;-88
2023/07/28 02:51:35;;;;;;;7.33;3.63;;;16.90;99.90;;;;;;5038219;28;20820;-85
2023/07/28 02:54:01;;;;;;;5.97;3.70;;;16.90;99.90;;;;;;5033407;28;20177;-89
2023/07/28 02:56:27;;;;;;;10.83;4.30;;;17.00;99.90;;;;;;5038189;28;20466;-86
2023/07/28 02:58:54;;;;;;;6.60;4.53;;;17.00;99.90;;;;;;5054822;28;20184;-87
2023/07/28 03:01:20;;;;;;;7.20;3.73;;;17.10;99.90;;;;;;5041367;28;20177;-88
2023/07/28 03:03:47;;;;;;;11.03;4.77;;;17.20;99.90;;;;;;5041878;28;20435;-85
2023/07/28 03:06:12;;;;;;;6.50;4.23;;;17.10;99.90;;;;;;5054899;28;20430;-87
2023/07/28 03:08:38;;;;;;;4.93;4.03;;;17.20;99.90;;;;;;5040722;28;20439;-87
2023/07/28 03:11:04;;;;;;;5.40;4.13;;;;;;;;;;5040481;28;20209;-86
2023/07/28 03:13:29;;;;;;;6.00;4.07;;;17.30;99.90;;;;;;5043807;28;20185;-88
2023/07/28 03:15:55;;;;;;;5.17;4.03;;;;;;;;;;5041329;28;20809;-89
2023/07/28 03:18:21;;;;;;;8.00;4.13;;;17.50;99.90;;;;;;5039884;28;20766;-88
2023/07/28 03:20:47;;;;;;;5.33;3.87;;;17.50;99.90;;;;;;5040497;28;20514;-86
2023/07/28 03:23:13;;;;;;;4.43;3.50;;;17.50;99.90;;;;;;5042662;28;20188;-85
2023/07/28 03:25:38;;;;;;;4.57;3.63;;;17.50;99.90;;;;;;5037034;28;20216;-87
2023/07/28 03:28:04;;;;;;;9.00;4.50;;;17.70;99.90;;;;;;5040982;28;20495;-88
2023/07/28 03:30:30;;;;;;;5.03;3.70;;;;;;;;;;5039787;28;20204;-86
2023/07/28 03:32:56;;;;;;;5.70;4.10;;;;;;;;;;5056762;28;20197;-84
2023/07/28 03:35:22;;;;;;;4.83;4.20;;;;;;;;;;5048793;28;20467;-84
2023/07/28 03:37:48;;;;;;;5.70;3.60;;;;;;;;;;5058105;28;20427;-85
2023/07/28 03:40:14;;;;;;;4.60;3.60;;;17.80;99.90;;;;;;5038284;28;20853;-84
2023/07/28 03:42:39;;;;;;;5.20;4.17;;;17.70;99.90;;;;;;5050500;28;21526;-86
2023/07/28 03:45:05;;;;;;;5.53;3.90;;;17.70;99.90;;;;;;5042126;28;20191;-85
2023/07/28 03:47:31;;;;;;;3.73;3.27;;;17.70;99.90;;;;;;5044480;28;20182;-88
2023/07/28 03:49:56;;;;;;;4.07;3.50;;;17.70;99.90;;;;;;5050664;28;21210;-85
2023/07/28 03:52:22;;;;;;;7.50;3.77;;;;;;;;;;5035165;28;20177;-85
2023/07/28 03:54:48;;;;;;;6.03;3.40;;;17.70;99.90;;;;;;5048004;28;20188;-86
2023/07/28 03:57:13;;;;;;;4.60;3.03;;;17.70;99.90;;;;;;5048083;28;20776;-87
2023/07/28 03:59:39;;;;;;;6.80;4.17;;;;;;;;;;5030656;28;21132;-84
2023/07/28 04:02:05;;;;;;;3.70;2.70;;;;;;;;;;5040712;28;20185;-89
2023/07/28 04:04:31;;;;;;;4.63;3.57;;;;;;;;;;5046122;28;20492;-85
2023/07/28 04:06:57;;;;;;;5.60;3.70;;;17.70;99.90;;;;;;5047413;28;20443;-86
2023/07/28 04:09:23;;;;;;;4.60;3.53;;;17.70;99.90;;;;;;5048339;28;20459;-86
2023/07/28 04:11:49;;;;;;;5.13;3.20;;;17.80;99.90;;;;;;5031347;28;20721;-85
2023/07/28 04:14:14;;;;;;;4.50;3.60;;;17.80;99.90;;;;;;5033196;28;20496;-85
2023/07/28 04:16:40;;;;;;;5.37;4.23;;;;;;;;;;5031049;28;20707;-85
2023/07/28 04:19:06;;;;;;;8.53;3.70;;;17.70;99.90;;;;;;5050163;28;20251;-83
2023/07/28 04:21:32;;;;;;;5.30;4.00;;;17.60;99.90;;;;;;5038222;28;20473;-85
2023/07/28 04:23:57;;;;;;;5.67;3.57;;;17.60;99.90;;;;;;5034310;28;20916;-89
2023/07/28 04:26:24;;;;;;;6.47;3.67;;;17.50;99.90;;;;;;5030819;28;20189;-85
2023/07/28 04:28:50;;;;;;;7.50;3.30;;;;;;;;;;5042485;28;20198;-83
2023/07/28 04:31:16;;;;;;;5.70;3.87;;;17.40;99.90;;;;;;5037352;28;21033;-87
2023/07/28 04:33:42;;;;;;;4.77;4.00;;;17.40;99.90;;;;;;5042176;28;20445;-87
2023/07/28 04:36:08;;;;;;;5.50;3.40;;;17.40;99.90;;;;;;5041306;28;20253;-86
2023/07/28 04:38:34;;;;;;;3.83;3.30;;;17.40;99.90;;;;;;5053804;28;20442;-86
2023/07/28 04:41:00;;;;;;;5.17;4.10;;;17.40;99.90;;;;;;5045273;28;20743;-86
2023/07/28 04:43:26;;;;;;;5.30;4.07;;;17.40;99.90;;;;;;5064008;28;20181;-82
2023/07/28 04:45:51;;;;;;;4.70;3.70;;;;;;;;;;5035991;28;20188;-83
2023/07/28 04:48:17;;;;;;;7.10;3.93;;;;;;;;;;5030023;28;20438;-84
2023/07/28 04:50:44;;;;;;;5.40;3.83;;;17.70;99.90;;;;;;5026342;28;20451;-83
2023/07/28 04:53:10;;;;;;;6.47;4.33;;;;;;;;;;5023349;28;20453;-84
2023/07/28 04:55:36;;;;;;;6.40;3.80;;;17.80;99.90;;;;;;5025513;28;20467;-84
2023/07/28 04:58:01;;;;;;;7.10;4.23;;;17.90;99.90;;;;;;5030533;28;20797;-85
2023/07/28 05:00:27;;;;;;;5.10;3.43;;;17.80;99.90;;;;;;5029115;28;21058;-87
2023/07/28 05:02:53;;;;;;;5.23;4.40;;;17.70;99.90;;;;;;5021154;28;22628;-86
2023/07/28 05:05:18;;;;;;;5.17;4.07;;;17.80;99.90;;;;;;5020548;28;20185;-83
2023/07/28 05:07:44;;;;;;;5.77;4.17;;;17.80;99.90;;;;;;5024567;28;20844;-84
2023/07/28 05:10:10;;;;;;;5.13;3.73;;;17.80;99.90;;;;;;5033013;28;22247;-82
2023/07/28 05:12:35;;;;;;;6.07;4.70;;;17.90;99.90;;;;;;5034248;28;20173;-83
2023/07/28 05:15:01;;;;;;;5.30;4.23;;;17.90;99.90;;;;;;5025135;28;20890;-84
2023/07/28 05:17:26;;;;;;;5.80;3.80;;;17.90;99.90;;;;;;5027750;28;20794;-84
2023/07/28 05:19:52;;;;;;;5.43;4.13;;;17.90;99.90;;;;;;5036944;28;20289;-86
2023/07/28 05:22:18;;;;;;;6.67;3.90;;;;;;;;;;5045586;28;20192;-85
2023/07/28 05:24:44;;;;;;;5.60;4.73;;;17.80;99.90;;;;;;5024072;28;21238;-85
2023/07/28 05:27:13;;;;;;;4.20;3.73;;;17.70;99.90;;;;;;5041334;28;20543;-85
2023/07/28 05:29:38;;;;;;;6.50;4.40;;;17.80;99.90;;;;;;5044456;28;20466;-83
2023/07/28 05:32:05;;;;;;;4.70;3.90;;;17.90;99.90;;;;;;5028036;28;20435;-86
2023/07/28 05:34:30;;;;;;;10.20;4.27;;;17.90;99.90;;;;;;5027407;28;20799;-82
2023/07/28 05:36:56;;;;;;;6.53;3.67;;;17.80;99.90;;;;;;5044713;28;20465;-86
2023/07/28 05:39:22;;;;;;;4.00;3.57;;;17.80;99.90;;;;;;5044669;28;20201;-83
2023/07/28 05:41:47;;;;;;;4.50;3.70;;;17.80;99.90;;;;;;5027249;28;20184;-87
2023/07/28 05:44:13;;;;;;;5.37;3.80;;;17.80;99.90;;;;;;5025646;28;21058;-83
2023/07/28 05:46:39;;;;;;;4.30;3.80;;;17.90;99.90;;;;;;5021907;28;20180;-85
2023/07/28 05:49:05;;;;;;;3.70;3.30;;;;;;;;;;5030087;28;20465;-85
2023/07/28 05:51:31;;;;;;;4.13;3.53;;;17.90;99.90;;;;;;5030881;28;20670;-84
2023/07/28 05:53:57;;;;;;;4.43;4.03;;;17.90;99.90;;;;;;5025671;28;20438;-85
2023/07/28 05:56:22;;;;;;;5.67;3.50;;;17.90;99.90;;;;;;5024866;28;21299;-84
2023/07/28 05:58:48;;;;;;;4.90;4.13;;;18.00;99.90;;;;;;5044037;28;20703;-81
2023/07/28 06:01:14;;;;;;;5.50;4.10;;;;;;;;;;5029801;28;20191;-85
2023/07/28 06:03:40;;;;;;;6.00;3.60;;;18.30;99.90;;;;;;5031698;28;20426;-85
2023/07/28 06:06:06;;;;;;;5.37;3.90;;;18.10;99.90;;;;;;5048000;28;20559;-81
2023/07/28 06:08:31;;;;;;;9.90;3.80;;;18.10;99.90;;;;;;5044411;28;21580;-83
2023/07/28 06:10:57;;;;;;;6.60;3.80;;;18.10;99.90;;;;;;5046311;28;20196;-83
2023/07/28 06:13:23;;;;;;;5.20;3.30;;;;;;;;;;5046401;28;20291;-85
2023/07/28 06:15:49;;;;;;;5.23;3.23;;;;;;;;;;5045527;28;20679;-83
2023/07/28 06:18:16;;;;;;;4.53;3.10;;;;;;;;;;5048693;28;20434;-84
2023/07/28 06:20:43;;;;;;;3.40;3.10;;;18.00;99.90;;;;;;5046418;28;20450;-82
2023/07/28 06:23:09;;;;;;;2.90;2.70;;;;;;;;;;5031014;28;20435;-85
2023/07/28 06:25:34;;;;;;;3.90;3.50;;;18.00;99.90;;;;;;5029248;28;20478;-87
2023/07/28 06:28:00;;;;;;;4.20;3.50;;;17.90;99.90;;;;;;5034686;28;20509;-83
2023/07/28 06:30:26;;;;;;;6.03;2.67;;;18.00;99.90;;;;;;5034793;28;20204;-84
2023/07/28 06:32:51;;;;;;;3.57;3.20;;;17.80;99.90;;;;;;5030977;28;20180;-84
2023/07/28 06:35:17;;;;;;;4.27;3.27;;;17.80;99.90;;;;;;5040119;28;20188;-85
2023/07/28 06:37:42;;;;;;;3.90;3.07;;;17.70;99.90;;;;;;5031355;28;20685;-86
2023/07/28 06:40:09;;;;;;;3.03;2.70;;;17.60;99.90;;;;;;5025958;28;20209;-84
2023/07/28 06:42:36;;;;;;;3.37;2.50;;;17.70;99.90;;;;;;5024179;28;20852;-84
2023/07/28 06:45:02;;;;;;;2.83;2.53;;;17.70;99.90;;;;;;5032573;28;20548;-83
2023/07/28 06:47:28;;;;;;;2.63;2.40;;;17.80;99.90;;;;;;5038746;28;20462;-86
2023/07/28 06:49:53;;;;;;;3.77;2.67;;;17.80;99.90;;;;;;5018863;28;22292;-84
2023/07/28 06:52:19;;;;;;;3.10;2.27;;;17.80;99.90;;;;;;5023226;28;22402;-86
2023/07/28 06:54:47;;;;;;;5.00;2.90;;;;;;;;;;5025193;28;22146;-83
2023/07/28 06:57:12;;;;;;;3.60;2.40;;;18.20;99.90;;;;;;5036128;28;22145;-83
2023/07/28 06:59:38;;;;;;;3.20;1.70;;;18.30;99.90;;;;;;5029768;28;20450;-85
2023/07/28 07:02:04;;;;;;;2.70;2.13;;;18.60;99.90;;;;;;5034698;28;20191;-85
2023/07/28 07:04:29;;;;;;;2.53;2.00;;;18.70;99.90;;;;;;5028219;28;20208;-83
2023/07/28 07:06:55;;;;;;;2.93;1.67;;;18.60;99.90;;;;;;5033921;28;20205;-83
2023/07/28 07:09:21;;;;;;;1.30;1.20;;;;;;;;;;5040214;28;20284;-81
2023/07/28 07:11:46;;;;;;;2.90;1.77;;;18.70;99.90;;;;;;5043728;28;21095;-82
2023/07/28 07:14:12;;;;;;;1.63;1.50;;;18.70;99.90;;;;;;5028244;28;20435;-84
2023/07/28 07:16:37;;;;;;;2.50;1.70;;;18.70;99.90;;;;;;5037954;28;20205;-87
2023/07/28 07:19:03;;;;;;;2.43;1.87;;;18.40;99.90;;;;;;5045437;28;20223;-86
2023/07/28 07:21:29;;;;;;;4.10;2.00;;;18.20;99.90;;;;;;5030046;28;20249;-86
2023/07/28 07:23:54;;;;;;;3.47;1.47;;;18.50;99.90;;;;;;5046383;28;20442;-84
2023/07/28 07:26:20;;;;;;;2.00;1.60;;;18.10;99.90;;;;;;5030420;28;20235;-84
2023/07/28 07:28:46;;;;;;;6.23;1.73;;;;;;;;;;5042056;28;20185;-83
2023/07/28 07:31:13;;;;;;;2.50;1.73;;;18.10;99.90;;;;;;5023576;28;20304;-84
2023/07/28 07:33:39;;;;;;;1.37;1.27;;;18.10;99.90;;;;;;5026631;28;20443;-85
2023/07/28 07:36:04;;;;;;;3.73;1.70;;;18.20;99.90;;;;;;5026891;28;20459;-82
2023/07/28 07:38:30;;;;;;;2.00;1.07;;;18.30;99.90;;;;;;5027269;28;20176;-82
2023/07/28 07:40:56;;;;;;;2.30;1.43;;;;;;;;;;5023442;28;20215;-83
2023/07/28 07:43:22;;;;;;;1.37;1.27;;;18.40;99.90;;;;;;5038964;28;20272;-85
2023/07/28 07:45:50;;;;;;;1.90;1.57;;;;;;;;;;5019726;28;20465;-86
2023/07/28 07:48:16;;;;;;;1.93;1.30;;;18.60;99.90;;;;;;5029603;28;20223;-83
2023/07/28 07:50:42;;;;;;;2.20;1.33;;;18.50;99.90;;;;;;5023188;28;20506;-84
2023/07/28 07:53:07;;;;;;;1.30;1.20;;;18.40;99.90;;;;;;5030379;28;20539;-84
2023/07/28 07:55:33;;;;;;;2.30;1.87;;;18.40;99.90;;;;;;5029425;28;22070;-85
2023/07/28 07:57:58;;;;;;;2.13;1.57;;;18.40;99.90;;;;;;5036193;28;20843;-85
2023/07/28 08:00:24;;;;;;;3.17;1.73;;;18.50;99.90;;;;;;5040158;28;21059;-83
2023/07/28 08:02:50;;;;;;;2.50;1.57;;;18.70;99.90;;;;;;5026198;28;20176;-82
2023/07/28 08:05:16;;;;;;;2.13;1.67;;;18.70;99.90;;;;;;5027496;28;20247;-82
2023/07/28 08:07:42;;;;;;;2.07;1.57;;;18.60;99.90;;;;;;5043397;28;20435;-83
2023/07/28 08:10:08;;;;;;;1.57;1.47;;;19.00;99.90;;;;;;5039160;28;20465;-84
2023/07/28 08:12:34;;;;;;;3.23;2.03;;;18.90;99.90;;;;;;5022614;28;20435;-83
2023/07/28 08:15:00;;;;;;;2.00;1.60;;;;;;;;;;5034293;28;20429;-80
2023/07/28 08:17:26;;;;;;;5.00;2.80;;;18.80;99.90;;;;;;5039097;28;20475;-84
2023/07/28 08:19:51;;;;;;;3.93;2.07;;;18.90;99.90;;;;;;5031161;28;20738;-87
2023/07/28 08:22:17;;;;;;;2.07;1.43;;;18.80;99.90;;;;;;5041870;28;20215;-84
2023/07/28 08:24:42;;;;;;;2.90;1.37;;;18.90;99.90;;;;;;5039650;28;20477;-82
2023/07/28 08:27:08;;;;;;;2.60;1.83;;;18.90;99.90;;;;;;5039321;28;21180;-86
2023/07/28 08:29:34;;;;;;;2.73;1.67;;;19.50;99.90;;;;;;5045061;28;20208;-84
2023/07/28 08:32:00;;;;;;;1.57;1.47;;;;;;;;;;5027637;28;20185;-84
2023/07/28 08:34:26;;;;;;;3.63;2.77;;;;;;;;;;5044954;28;20208;-83
2023/07/28 08:36:52;;;;;;;4.30;2.60;;;;;;;;;;5046036;28;20580;-85
2023/07/28 08:39:18;;;;;;;2.40;2.07;;;19.70;99.90;;;;;;5035193;28;20458;-85
2023/07/28 08:41:44;;;;;;;3.03;1.83;;;19.80;99.90;;;;;;5018361;28;20586;-85
2023/07/28 08:44:09;;;;;;;2.57;2.00;;;20.20;99.90;;;;;;5043317;28;20439;-85
2023/07/28 08:46:36;;;;;;;2.67;2.10;;;20.20;99.90;;;;;;5049894;28;20688;-83
2023/07/28 08:49:02;;;;;;;2.40;1.93;;;;;;;;;;5042837;28;20271;-83
2023/07/28 08:51:28;;;;;;;3.73;2.10;;;20.40;99.90;;;;;;5030041;28;20423;-84
2023/07/28 08:53:54;;;;;;;1.73;1.63;;;;;;;;;;5026709;28;20548;-84
2023/07/28 08:56:21;;;;;;;5.10;1.80;;;20.90;99.90;;;;;;5029171;28;20208;-83
2023/07/28 08:58:47;;;;;;;1.97;1.77;;;22.00;99.90;;;;;;5028732;28;21609;-86
2023/07/28 09:01:12;;;;;;;1.73;1.63;;;22.00;99.90;;;;;;5029211;28;20461;-84
2023/07/28 09:03:42;;;;;;;1.83;1.67;;;23.90;99.90;;;;;;5035737;28;20185;-84
2023/07/28 09:06:11;;;;;;;2.83;1.90;;;25.70;99.90;;;;;;5028592;28;20246;-86
2023/07/28 09:08:37;;;;;;;3.23;2.03;;;;;;;;;;5030574;28;20491;-84
2023/07/28 09:11:05;;;;;;;2.17;1.83;;;25.00;99.90;;;;;;5025667;28;20455;-84
2023/07/28 09:13:41;;;;;;;1.90;1.43;;;25.90;99.90;;;;;;5026838;28;21292;-86
2023/07/28 09:16:19;;;;;;;2.77;1.77;;;26.20;99.90;;;;;;5022555;28;20469;-86
2023/07/28 09:18:45;;;;;;;1.50;1.40;;;;;;;;;;5023029;28;20488;-83
2023/07/28 09:21:21;;;;;;;2.83;1.97;;;26.10;99.90;;;;;;5037448;28;20433;-87
2023/07/28 09:23:47;;;;;;;3.67;2.00;;;26.00;99.90;;;;;;5050829;28;20456;-81
2023/07/28 09:26:15;;;;;;;2.80;1.57;;;27.10;99.90;;;;;;5028476;28;20850;-81
2023/07/28 09:28:41;;;;;;;4.27;1.80;;;26.10;99.90;;;;;;5029403;28;20441;-82
2023/07/28 09:31:08;;;;;;;2.67;1.60;;;26.00;99.90;;;;;;5028010;28;20505;-86
2023/07/28 09:33:35;;;;;;;3.10;1.67;;;26.70;99.90;;;;;;5023520;28;20842;-84
2023/07/28 09:36:10;;;;;;;2.60;1.77;;;26.70;99.90;;;;;;5028552;28;20492;-85
2023/07/28 09:38:38;;;;;;;2.50;2.17;;;24.50;99.90;;;;;;5027408;28;20534;-84
2023/07/28 09:41:09;;;;;;;1.60;1.50;;;24.00;99.90;;;;;;5028930;28;20550;-84
2023/07/28 09:43:35;;;;;;;3.23;2.03;;;23.60;99.90;;;;;;5027741;28;20439;-83
2023/07/28 09:46:03;;;;;;;2.47;1.80;;;23.10;99.90;;;;;;5024646;28;20444;-84
2023/07/28 09:48:33;;;;;;;1.73;1.27;;;23.40;99.90;;;;;;5041669;28;20439;-85
2023/07/28 09:51:09;;;;;;;3.33;1.70;;;24.90;99.90;;;;;;5044188;28;20457;-83
2023/07/28 09:53:40;;;;;;;2.53;1.70;;;25.90;99.90;;;;;;5029488;28;20456;-84
2023/07/28 09:56:07;;;;;;;2.13;1.63;;;24.20;99.90;;;;;;5047883;28;20508;-84
2023/07/28 09:58:37;;;;;;;2.93;1.87;;;24.20;99.90;;;;;;5030378;28;20430;-84
2023/07/28 10:01:05;;;;;;;2.67;1.70;;;24.20;99.90;;;;;;5030250;28;20514;-87
2023/07/28 10:03:32;;;;;;;2.13;1.80;;;24.10;99.90;;;;;;5031994;28;20463;-84
2023/07/28 10:05:58;;;;;;;1.83;1.60;;;;;;;;;;5035953;28;20457;-84
2023/07/28 10:08:24;;;;;;;3.53;1.60;;;25.10;99.90;;;;;;5034453;28;20859;-84
2023/07/28 10:10:52;;;;;;;3.17;1.73;;;24.30;99.90;;;;;;5030951;28;22470;-83
2023/07/28 10:13:22;;;;;;;1.57;1.47;;;23.60;99.90;;;;;;5043747;28;20440;-83
2023/07/28 10:15:48;;;;;;;5.43;1.50;;;23.70;99.90;;;;;;5043577;28;20469;-83
2023/07/28 10:18:14;;;;;;;1.60;1.50;;;;;;;;;;5030691;28;20455;-87
2023/07/28 10:20:43;;;;;;;1.63;1.53;;;23.30;99.90;;;;;;5045312;28;20459;-87
2023/07/28 10:23:16;;;;;;;2.67;1.40;;;24.50;99.90;;;;;;5034785;28;20448;-85
2023/07/28 10:25:43;;;;;;;2.70;1.37;;;24.50;99.90;;;;;;5035527;28;20432;-83
2023/07/28 10:28:51;;;;;;;1.57;1.47;;;24.10;99.90;;;;;;5040809;28;20439;-83
2023/07/28 10:31:30;;;;;;;2.50;1.10;;;23.30;99.90;;;;;;4970201;28;20445;-82
2023/07/28 10:33:55;;;;;;;1.80;1.20;;;23.20;99.90;;;;;;4975239;28;20475;-86
2023/07/28 10:36:21;;;;;;;1.50;1.40;;;23.00;99.90;;;;;;5022547;28;21486;-82
2023/07/28 10:39:00;;;;;;;1.83;1.50;;;22.40;99.90;;;;;;5035742;28;20243;-83
2023/07/28 10:41:25;;;;;;;3.10;1.17;;;22.40;99.90;;;;;;5030088;28;20470;-83
2023/07/28 10:43:51;;;;;;;3.57;1.63;;;22.20;99.90;;;;;;5032834;28;20514;-84
2023/07/28 10:46:20;;;;;;;1.67;1.17;;;22.20;99.90;;;;;;5028561;28;20720;-83
2023/07/28 10:48:48;;;;;;;1.93;1.50;;;22.90;99.90;;;;;;5037311;28;20446;-84
2023/07/28 10:51:32;;;;;;;1.40;1.30;;;22.90;99.90;;;;;;5041307;28;20437;-83
2023/07/28 10:53:59;;;;;;;1.80;1.57;;;23.10;99.90;;;;;;5037325;28;22142;-87
2023/07/28 10:56:25;;;;;;;1.90;1.27;;;22.70;99.90;;;;;;5035199;28;20609;-86
2023/07/28 10:58:59;;;;;;;4.93;1.57;;;22.50;99.90;;;;;;5054167;28;20659;-87
2023/07/28 11:01:33;;;;;;;4.00;2.03;;;22.30;99.90;;;;;;5038294;28;20469;-84
2023/07/28 11:04:08;;;;;;;3.40;1.73;;;23.10;99.90;;;;;;5039928;28;20454;-86
2023/07/28 11:06:34;;;;;;;2.50;1.40;;;;;;;;;;5042529;28;20434;-84
2023/07/28 11:09:00;;;;;;;2.20;1.77;;;;;;;;;;5032598;28;20516;-86
2023/07/28 11:11:26;;;;;;;1.90;1.40;;;23.80;99.90;;;;;;5035329;28;20444;-84
2023/07/28 11:13:52;;;;;;;2.33;2.03;;;23.50;99.90;;;;;;5051626;28;21028;-86
2023/07/28 11:16:18;;;;;;;2.83;1.37;;;23.30;99.90;;;;;;5029150;28;20598;-82
2023/07/28 11:18:44;;;;;;;2.30;1.80;;;;;;;;;;5047134;28;20430;-86
2023/07/28 11:21:09;;;;;;;1.80;1.27;;;22.90;99.90;;;;;;5031711;28;20192;-85
2023/07/28 11:23:35;;;;;;;1.70;1.53;;;22.80;99.90;;;;;;5046247;28;21486;-85
2023/07/28 11:26:00;;;;;;;2.50;1.73;;;22.80;99.90;;;;;;5048500;28;20189;-86
2023/07/28 11:28:26;;;;;;;1.93;1.77;;;;;;;;;;5033673;28;20267;-84
2023/07/28 11:30:53;;;;;;;3.03;1.60;;;22.70;99.90;;;;;;5031910;28;20223;-87
2023/07/28 11:33:19;;;;;;;5.93;1.87;;;22.30;99.90;;;;;;5046825;28;20539;-86
2023/07/28 11:35:46;;;;;;;2.90;1.53;;;;;;;;;;5038761;28;21135;-86
2023/07/28 11:38:12;;;;;;;2.47;1.53;;;22.50;99.90;;;;;;5037444;28;20448;-84
2023/07/28 11:40:38;;;;;;;2.00;1.60;;;22.20;99.90;;;;;;5037629;28;20501;-86
2023/07/28 11:43:04;;;;;;;1.73;1.20;;;;;;;;;;5036097;28;20662;-84
2023/07/28 11:45:30;;;;;;;2.13;1.70;;;22.70;99.90;;;;;;5050613;28;20192;-83
2023/07/28 11:48:08;;;;;;;3.70;1.70;;;22.90;99.90;;;;;;5040207;28;20454;-85
2023/07/28 11:50:39;;;;;;;2.20;1.37;;;23.60;99.90;;;;;;5053118;28;20324;-83
2023/07/28 11:53:06;;;;;;;1.80;1.30;;;;;;;;;;5044260;28;20522;-85
2023/07/28 11:55:32;;;;;;;2.30;1.90;;;;;;;;;;5038176;28;20453;-83
2023/07/28 11:57:58;;;;;;;2.53;1.67;;;;;;;;;;5036235;28;20452;-85
2023/07/28 12:00:37;;;;;;;2.77;2.00;;;24.30;99.90;;;;;;5031652;28;20464;-86
2023/07/28 12:03:09;;;;;;;3.43;2.30;;;23.80;99.90;;;;;;5036382;28;20444;-86
2023/07/28 12:05:35;;;;;;;4.20;2.07;;;;;;;;;;5038028;28;20473;-85
2023/07/28 12:08:03;;;;;;;2.00;1.47;;;23.30;99.90;;;;;;5032760;28;20801;-86
2023/07/28 12:10:29;;;;;;;3.37;1.90;;;;;;;;;;5026016;28;20543;-83
2023/07/28 12:12:55;;;;;;;2.73;2.13;;;22.90;99.90;;;;;;5035917;28;20440;-84
2023/07/28 12:15:31;;;;;;;2.00;1.67;;;23.20;99.90;;;;;;5034097;28;20441;-84
2023/07/28 12:18:16;;;;;;;2.20;1.70;;;23.70;99.90;;;;;;5047314;28;20241;-83
2023/07/28 12:20:49;;;;;;;2.10;1.77;;;24.30;99.90;;;;;;5038680;28;20886;-88
2023/07/28 12:23:17;;;;;;;2.10;1.90;;;24.30;99.90;;;;;;5047212;28;20442;-84
2023/07/28 12:25:43;;;;;;;2.37;2.13;;;24.30;99.90;;;;;;5033365;28;20771;-88
2023/07/28 12:28:10;;;;;;;2.53;2.10;;;23.80;99.90;;;;;;5048844;28;20424;-85
2023/07/28 12:30:36;;;;;;;5.30;2.00;;;23.00;99.90;;;;;;5037391;28;22244;-83
2023/07/28 12:33:06;;;;;;;5.73;2.87;;;23.00;99.90;;;;;;5032989;28;20449;-83
2023/07/28 12:35:34;;;;;;;3.40;1.80;;;23.00;99.90;;;;;;5027423;28;21065;-85
2023/07/28 12:38:01;;;;;;;2.40;1.50;;;23.00;99.90;;;;;;5027507;28;20439;-84
2023/07/28 12:40:30;;;;;;;3.40;1.83;;;22.70;99.90;;;;;;5027803;28;20542;-84
2023/07/28 12:42:56;;;;;;;2.47;2.07;;;22.90;99.90;;;;;;5030502;28;21230;-85
2023/07/28 12:45:22;;;;;;;2.60;2.23;;;;;;;;;;5029783;28;20506;-84
2023/07/28 12:47:48;;;;;;;2.63;1.73;;;;;;;;;;5046758;28;20531;-85
2023/07/28 12:50:14;;;;;;;2.73;2.10;;;;;;;;;;5032323;28;21716;-85
2023/07/28 12:52:40;;;;;;;5.53;2.87;;;22.90;99.90;;;;;;5023479;28;21230;-87
2023/07/28 12:55:06;;;;;;;10.97;2.70;;;22.80;99.90;;;;;;5032094;28;20484;-87
2023/07/28 12:57:32;;;;;;;3.30;2.60;;;22.50;99.90;;;;;;5031148;28;20232;-85
2023/07/28 12:59:58;;;;;;;3.73;2.93;;;22.40;99.90;;;;;;5023265;28;20416;-84
2023/07/28 13:02:24;;;;;;;4.43;2.73;;;22.10;99.90;;;;;;5034292;28;20434;-88
2023/07/28 13:04:49;;;;;;;3.60;2.73;;;22.20;99.90;;;;;;5030239;28;20553;-85